Time;durP1;ratioP1;P1;durP2;ratioP2;P2;SDS_P1;SDS_P2;PMS_P1;PMS_P2;Temp;Humidity;BMP_temperature;BMP_pressure;BME280_temperature;BME280_humidity;BME280_pressure;Samples;Min_cycle;Max_cycle;Signal;HPM_P1;HPM_P2
2021/01/01 00:02:24;;;;;;;178.18;97.45;;;;;;;2.87;100.00;100586.97;10384596;28;20402;-75
2021/01/01 00:07:25;;;;;;;142.80;80.15;;;;;;;2.47;100.00;100528.38;10382459;28;20042;-75
2021/01/01 00:12:25;;;;;;;189.30;106.55;;;;;;;2.74;100.00;100566.53;10364019;28;20060;-76
2021/01/01 00:17:26;;;;;;;118.55;63.20;;;;;;;2.93;100.00;100600.94;10379682;28;20044;-75
2021/01/01 00:22:26;;;;;;;139.30;74.28;;;;;;;2.65;100.00;100552.41;10377851;28;20041;-77
2021/01/01 00:27:28;;;;;;;111.40;59.75;;;;;;;3.02;100.00;100608.97;10378681;28;20049;-75
2021/01/01 00:32:28;;;;;;;122.13;69.80;;;;;;;2.96;100.00;100611.78;10378491;28;20810;-75
2021/01/01 00:37:29;;;;;;;123.13;67.03;;;;;;;2.84;100.00;100592.91;10384771;28;20111;-75
2021/01/01 00:42:29;;;;;;;126.45;67.93;;;;;;;2.82;100.00;100611.13;10372450;28;20041;-74
2021/01/01 00:47:30;;;;;;;106.05;55.67;;;;;;;2.49;100.00;100582.22;10392709;28;20041;-75
2021/01/01 00:52:30;;;;;;;128.23;64.32;;;;;;;2.54;100.00;100606.06;10393997;28;20052;-74
2021/01/01 00:57:31;;;;;;;123.85;67.95;;;;;;;2.26;100.00;100584.19;10394367;28;20041;-74
2021/01/01 01:02:31;;;;;;;126.82;68.03;;;;;;;2.05;100.00;100594.59;10379832;28;20042;-74
2021/01/01 01:07:32;;;;;;;125.85;67.53;;;;;;;2.04;100.00;100614.34;10376066;28;20076;-74
2021/01/01 01:12:32;;;;;;;118.75;62.70;;;;;;;1.90;100.00;100618.97;10387053;28;20061;-75
2021/01/01 01:17:33;;;;;;;110.70;56.95;;;;;;;1.65;100.00;100607.88;10382630;28;20041;-75
2021/01/01 01:22:33;;;;;;;87.85;42.70;;;;;;;1.30;100.00;100568.78;10392051;28;20095;-75
2021/01/01 01:27:33;;;;;;;61.58;28.35;;;;;;;1.55;100.00;100618.00;10389977;28;20041;-75
2021/01/01 01:32:34;;;;;;;39.95;18.15;;;;;;;1.68;100.00;100627.81;10382543;28;20033;-75
2021/01/01 01:37:34;;;;;;;36.00;16.65;;;;;;;1.59;100.00;100609.09;10393433;28;20052;-75
2021/01/01 01:42:35;;;;;;;43.47;19.65;;;;;;;1.66;100.00;100630.75;10388880;28;21632;-74
2021/01/01 01:47:37;;;;;;;44.97;22.08;;;;;;;1.40;100.00;100600.50;10390545;28;20050;-74
2021/01/01 01:52:38;;;;;;;52.08;22.38;;;;;;;1.72;100.00;100654.63;10394353;28;20132;-74
2021/01/01 01:57:38;;;;;;;45.58;20.75;;;;;;;1.51;100.00;100628.47;10386255;28;20044;-74
2021/01/01 02:02:39;;;;;;;42.55;21.52;;;;;;;1.41;100.00;100596.75;10380032;28;20046;-74
2021/01/01 02:07:40;;;;;;;57.05;25.55;;;;;;;1.68;100.00;100655.22;10388786;28;20045;-74
2021/01/01 02:12:41;;;;;;;77.78;34.35;;;;;;;1.32;100.00;100603.88;10387530;28;20049;-74
2021/01/01 02:17:42;;;;;;;79.25;36.03;;;;;;;1.62;100.00;100656.47;10387960;28;20547;-74
2021/01/01 02:22:42;;;;;;;81.35;39.22;;;;;;;1.43;100.00;100618.53;10389289;28;20037;-74
2021/01/01 02:27:43;;;;;;;79.60;38.30;;;;;;;1.53;100.00;100658.28;10391845;28;20486;-74
2021/01/01 02:32:43;;;;;;;64.63;30.75;;;;;;;0.97;100.00;100571.69;10396869;28;20096;-74
2021/01/01 02:37:44;;;;;;;56.53;26.40;;;;;;;1.39;100.00;100636.22;10394278;28;20025;-74
2021/01/01 02:42:44;;;;;;;46.03;23.98;;;;;;;1.61;100.00;100676.19;10391262;28;20033;-74
2021/01/01 02:47:45;;;;;;;50.30;22.80;;;;;;;1.47;100.00;100659.47;10384100;28;20497;-74
2021/01/01 02:52:45;;;;;;;48.50;22.45;;;;;;;1.48;100.00;100677.00;10383810;28;20057;-74
2021/01/01 02:57:46;;;;;;;47.15;23.52;;;;;;;1.19;100.00;100659.53;10384597;28;20454;-74
2021/01/01 03:02:46;;;;;;;44.55;22.83;;;;;;;1.24;100.00;100680.72;10376235;28;20065;-74
2021/01/01 03:07:47;;;;;;;40.35;17.25;;;;;;;1.12;100.00;100664.50;10382477;28;20410;-74
2021/01/01 03:12:47;;;;;;;34.45;15.48;;;;;;;0.98;100.00;100653.09;10380068;28;20049;-74
2021/01/01 03:17:48;;;;;;;33.15;14.55;;;;;;;0.95;100.00;100653.69;10386218;28;20126;-75
2021/01/01 03:22:48;;;;;;;33.30;15.15;;;;;;;1.08;100.00;100668.84;10383781;28;20124;-75
2021/01/01 03:27:49;;;;;;;38.38;18.40;;;;;;;1.08;100.00;100684.81;10384583;28;20033;-74
2021/01/01 03:32:49;;;;;;;39.60;17.30;;;;;;;1.00;100.00;100693.50;10388179;28;20049;-75
2021/01/01 03:37:49;;;;;;;37.10;15.85;;;;;;;0.83;100.00;100678.94;10384911;28;20049;-74
2021/01/01 03:42:50;;;;;;;24.95;13.07;;;;;;;0.50;100.00;100626.94;10387914;28;20060;-74
2021/01/01 03:47:51;;;;;;;32.15;15.80;;;;;;;0.69;100.00;100664.84;10382186;28;20049;-74
2021/01/01 03:52:51;;;;;;;28.50;13.40;;;;;;;0.65;100.00;100666.53;10386906;28;20052;-74
2021/01/01 03:57:52;;;;;;;22.90;10.43;;;;;;;0.74;100.00;100664.75;10382005;28;20037;-75
2021/01/01 04:02:52;;;;;;;26.15;10.55;;;;;;;0.59;100.00;100619.84;10383688;28;20152;-75
2021/01/01 04:07:53;;;;;;;22.45;10.43;;;;;;;1.03;100.00;100692.91;10383765;28;20037;-75
2021/01/01 04:12:53;;;;;;;24.80;10.60;;;;;;;0.78;100.00;100649.78;10387168;28;20057;-75
2021/01/01 04:17:53;;;;;;;27.08;10.85;;;;;;;0.49;100.00;100630.66;10379529;28;20080;-75
2021/01/01 04:22:54;;;;;;;33.00;12.88;;;;;;;0.38;100.00;100617.59;10385670;28;20045;-75
2021/01/01 04:27:55;;;;;;;30.10;12.35;;;;;;;0.71;100.00;100681.31;10378518;28;20037;-74
2021/01/01 04:32:55;;;;;;;24.15;11.35;;;;;;;0.82;100.00;100698.66;10371892;28;20033;-74
2021/01/01 04:37:56;;;;;;;28.98;10.45;;;;;;;0.62;100.00;100629.88;10380556;28;20128;-75
2021/01/01 04:42:56;;;;;;;26.20;10.45;;;;;;;1.05;100.00;100696.06;10389419;28;20068;-74
2021/01/01 04:47:57;;;;;;;23.38;9.75;;;;;;;0.97;100.00;100681.59;10389436;28;20493;-74
2021/01/01 04:53:00;;;;;;;20.55;8.65;;;;;;;0.89;100.00;100686.81;10389015;28;20093;-74
2021/01/01 04:58:01;;;;;;;17.55;7.68;;;;;;;0.93;100.00;100698.44;10372231;28;20040;-74
2021/01/01 05:03:01;;;;;;;15.23;7.65;;;;;;;0.97;100.00;100688.78;10367847;28;20060;-74
2021/01/01 05:08:02;;;;;;;18.42;7.28;;;;;;;0.91;100.00;100679.31;10385865;28;20049;-74
2021/01/01 05:13:09;;;;;;;23.10;9.00;;;;;;;1.15;100.00;100695.84;10381048;28;20054;-75
2021/01/01 05:18:20;;;;;;;16.48;7.78;;;;;;;1.20;100.00;100687.78;10380346;28;20041;-75
2021/01/01 05:23:28;;;;;;;15.07;7.18;;;;;;;0.97;100.00;100646.22;10388289;28;20037;-74
2021/01/01 05:28:40;;;;;;;15.82;7.97;;;;;;;0.84;100.00;100611.31;10386849;28;20187;-75
2021/01/01 05:33:42;;;;;;;25.85;10.60;;;;;;;1.30;100.00;100654.00;10386648;28;20083;-75
2021/01/01 05:38:42;;;;;;;21.15;10.32;;;;;;;1.63;100.00;100700.66;10391984;28;20041;-77
2021/01/01 05:43:43;;;;;;;25.52;11.13;;;;;;;1.68;100.00;100676.53;10389695;28;20506;-75
2021/01/01 05:48:59;;;;;;;25.42;10.10;;;;;;;1.47;100.00;100648.81;10384394;28;20045;-75
2021/01/01 05:54:10;;;;;;;27.80;11.65;;;;;;;1.89;100.00;100708.06;10385518;28;20045;-76
2021/01/01 05:59:11;;;;;;;21.55;10.57;;;;;;;1.87;100.00;100699.56;10392123;28;20033;-74
2021/01/01 06:04:11;;;;;;;21.85;10.55;;;;;;;1.71;100.00;100679.69;10393809;28;20042;-73
2021/01/01 06:09:12;;;;;;;25.80;11.48;;;;;;;1.82;100.00;100697.03;10362589;28;20508;-74
2021/01/01 06:14:15;;;;;;;26.30;12.88;;;;;;;1.67;100.00;100666.19;10393952;28;20061;-72
2021/01/01 06:19:21;;;;;;;24.10;12.75;;;;;;;1.65;100.00;100663.84;10378229;28;20049;-76
2021/01/01 06:24:22;;;;;;;24.40;11.07;;;;;;;1.86;100.00;100692.69;10384397;28;20486;-74
2021/01/01 06:29:23;;;;;;;20.45;10.80;;;;;;;1.93;100.00;100709.03;10385236;28;20057;-74
2021/01/01 06:34:32;;;;;;;25.13;12.18;;;;;;;2.17;100.00;100745.25;10392834;28;20391;-74
2021/01/01 06:39:40;;;;;;;19.67;9.90;;;;;;;2.16;100.00;100738.31;10385054;28;20124;-75
2021/01/01 06:44:42;;;;;;;21.02;10.23;;;;;;;2.18;100.00;100741.47;10390789;28;20038;-75
2021/01/01 06:49:43;;;;;;;21.87;9.43;;;;;;;2.31;100.00;100757.41;10389926;28;20172;-78
2021/01/01 06:55:02;;;;;;;15.40;8.00;;;;;;;1.93;100.00;100697.56;10386693;28;20060;-75
2021/01/01 07:00:03;;;;;;;18.85;8.60;;;;;;;2.18;100.00;100746.81;10390346;28;21715;-75
2021/01/01 07:05:04;;;;;;;20.65;10.35;;;;;;;1.72;100.00;100691.91;10381864;28;20057;-74
2021/01/01 07:10:06;;;;;;;15.55;8.20;;;;;;;2.22;100.00;100793.13;10387924;28;20045;-75
2021/01/01 07:15:33;;;;;;;22.43;10.37;;;;;;;2.24;100.00;100782.94;10383752;28;20061;-76
2021/01/01 07:20:39;;;;;;;20.55;9.63;;;;;;;2.11;100.00;100773.91;10379010;28;20046;-77
2021/01/01 07:25:39;;;;;;;24.27;11.25;;;;;;;1.89;100.00;100729.38;10387956;28;20501;-74
2021/01/01 07:30:40;;;;;;;22.65;12.00;;;;;;;2.01;100.00;100753.59;10381111;28;20048;-77
2021/01/01 07:36:08;;;;;;;20.63;10.68;;;;;;;1.85;100.00;100712.41;10363493;28;20478;-74
2021/01/01 07:41:09;;;;;;;33.85;13.63;;;;;;;1.86;100.00;100724.66;10388098;28;20123;-74
2021/01/01 07:46:10;;;;;;;27.52;12.27;;;;;;;2.36;100.00;100785.84;10367819;28;20513;-74
2021/01/01 07:51:11;;;;;;;22.63;11.38;;;;;;;2.44;100.00;100795.75;10379536;28;20038;-76
2021/01/01 07:56:11;;;;;;;22.30;11.45;;;;;;;2.51;100.00;100798.78;10382026;28;20134;-77
2021/01/01 08:01:12;;;;;;;25.50;12.23;;;;;;;2.49;100.00;100801.00;10384035;28;20049;-76
2021/01/01 08:06:12;;;;;;;22.50;11.27;;;;;;;2.00;100.00;100725.38;10377373;28;20112;-77
2021/01/01 08:11:13;;;;;;;24.17;10.65;;;;;;;2.65;100.00;100813.94;10384499;28;20102;-76
2021/01/01 08:16:16;;;;;;;23.17;12.07;;;;;;;2.68;100.00;100810.66;10392122;28;20053;-73
2021/01/01 08:21:17;;;;;;;24.20;12.27;;;;;;;2.69;100.00;100825.59;10373627;28;20033;-74
2021/01/01 08:26:17;;;;;;;19.65;11.15;;;;;;;2.74;100.00;100828.13;10372727;28;20041;-75
2021/01/01 08:31:20;;;;;;;20.10;11.00;;;;;;;2.67;100.00;100822.44;10358829;28;20069;-74
2021/01/01 08:36:32;;;;;;;18.52;11.02;;;;;;;2.74;100.00;100834.25;10381266;28;20049;-76
2021/01/01 08:41:43;;;;;;;21.60;12.50;;;;;;;2.50;100.00;100781.22;10379020;28;20160;-74
2021/01/01 08:46:44;;;;;;;21.50;12.30;;;;;;;2.86;100.00;100828.34;10382954;28;20771;-75
2021/01/01 08:51:48;;;;;;;17.92;10.77;;;;;;;3.11;100.00;100842.13;10382930;28;20141;-76
2021/01/01 08:56:59;;;;;;;24.52;12.70;;;;;;;3.02;100.00;100822.59;10384321;28;20445;-74
2021/01/01 09:02:00;;;;;;;20.83;12.80;;;;;;;3.24;100.00;100846.56;10393788;28;20053;-74
2021/01/01 09:07:02;;;;;;;28.65;11.63;;;;;;;3.27;100.00;100823.78;10384320;28;20045;-76
2021/01/01 09:12:19;;;;;;;18.48;10.20;;;;;;;3.25;100.00;100800.06;10385276;28;20042;-75
2021/01/01 09:17:22;;;;;;;19.08;10.15;;;;;;;3.73;100.00;100863.34;10352514;28;20042;-77
2021/01/01 09:22:22;;;;;;;18.83;10.18;;;;;;;3.85;100.00;100864.63;10374243;28;20075;-75
2021/01/01 09:27:25;;;;;;;17.77;9.30;;;;;;;3.59;100.00;100819.94;10316552;28;20518;-75
2021/01/01 09:32:25;;;;;;;20.50;9.40;;;;;;;3.93;100.00;100874.56;10353692;28;20116;-75
2021/01/01 09:37:26;;;;;;;14.43;9.90;;;;;;;3.99;100.00;100870.63;10359267;28;20041;-75
2021/01/01 09:42:26;;;;;;;14.30;8.52;;;;;;;3.99;99.23;100865.28;10376572;28;20042;-74
2021/01/01 09:47:27;;;;;;;18.52;9.20;;;;;;;3.86;99.13;100850.97;10347159;28;20103;-76
2021/01/01 09:52:27;;;;;;;17.25;9.15;;;;;;;3.65;99.37;100829.38;10379626;28;20530;-75
2021/01/01 09:57:27;;;;;;;17.52;9.27;;;;;;;3.94;99.75;100868.13;10383011;28;20070;-76
2021/01/01 10:02:28;;;;;;;19.05;9.10;;;;;;;4.00;99.04;100866.88;10352850;28;20041;-77
2021/01/01 10:07:29;;;;;;;19.05;9.02;;;;;;;3.79;98.94;100830.03;10361186;28;20097;-77
2021/01/01 10:12:30;;;;;;;17.88;9.57;;;;;;;4.11;98.43;100884.16;10384543;28;20053;-77
2021/01/01 10:27:43;;;;;;;17.40;10.63;;;;;;;4.18;98.46;100900.53;10386115;28;20566;-78
2021/01/01 10:32:44;;;;;;;17.67;8.68;;;;;;;3.69;95.45;100803.63;10338665;28;20045;-78
2021/01/01 10:37:44;;;;;;;22.35;8.80;;;;;;;4.38;94.23;100893.00;10356440;28;20045;-79
2021/01/01 10:42:45;;;;;;;14.55;7.32;;;;;;;4.45;92.65;100877.25;10338567;28;20045;-78
2021/01/01 10:47:47;;;;;;;13.90;7.85;;;;;;;4.54;92.10;100891.41;10342916;28;20046;-78
2021/01/01 10:52:47;;;;;;;12.65;6.80;;;;;;;4.23;91.49;100822.81;10343084;28;20099;-79
2021/01/01 10:57:48;;;;;;;12.32;6.20;;;;;;;3.59;90.35;100755.78;10352329;28;20104;-80
2021/01/01 11:02:48;;;;;;;10.07;6.07;;;;;;;4.29;90.42;100822.66;10334881;28;20068;-80
2021/01/01 11:07:49;;;;;;;13.32;6.53;;;;;;;4.70;90.11;100872.16;10324118;28;20865;-80
2021/01/01 11:12:49;;;;;;;16.25;6.20;;;;;;;4.83;89.75;100871.22;10332020;28;20481;-82
2021/01/01 12:27:05;;;;;;;12.45;6.60;;;;;;;5.86;83.88;100820.88;10333326;28;20053;-78
2021/01/01 12:32:05;;;;;;;13.88;6.45;;;;;;;6.00;84.59;100857.41;10348880;28;20057;-78
2021/01/01 12:37:07;;;;;;;11.90;6.07;;;;;;;5.77;84.60;100805.94;10375483;28;20128;-77
2021/01/01 12:42:07;;;;;;;12.18;7.40;;;;;;;6.29;83.61;100854.63;10363683;28;20056;-79
2021/01/01 12:47:07;;;;;;;15.45;6.80;;;;;;;6.26;83.34;100860.69;10343659;28;20061;-80
2021/01/01 12:52:08;;;;;;;12.10;6.50;;;;;;;5.88;83.41;100813.28;10365509;28;20038;-77
2021/01/01 12:57:08;;;;;;;13.30;7.47;;;;;;;6.26;83.21;100855.31;10352317;28;20042;-79
2021/01/01 13:02:09;;;;;;;11.32;6.32;;;;;;;6.28;83.38;100853.09;10359403;28;20149;-79
2021/01/01 13:07:10;;;;;;;11.05;6.28;;;;;;;6.51;83.29;100871.50;10336260;28;20052;-81
2021/01/01 13:12:10;;;;;;;10.70;4.75;;;;;;;6.43;80.05;100853.59;10338595;28;20046;-78
2021/01/01 13:17:10;;;;;;;9.90;4.30;;;;;;;5.96;80.15;100787.50;10360948;28;20038;-78
2021/01/01 13:22:11;;;;;;;13.48;6.97;;;;;;;6.37;78.59;100842.25;10347590;28;20093;-80
2021/01/01 13:27:12;;;;;;;13.15;5.97;;;;;;;6.20;77.92;100861.97;10368753;28;20053;-79
2021/01/01 13:32:12;;;;;;;8.88;3.78;;;;;;;6.02;78.94;100849.81;10361905;28;20267;-78
2021/01/01 13:37:13;;;;;;;9.63;3.47;;;;;;;5.64;79.14;100807.75;10347431;28;20050;-79
2021/01/01 13:42:13;;;;;;;10.98;4.32;;;;;;;4.92;78.72;100707.78;10349260;28;20041;-78
2021/01/01 13:47:14;;;;;;;9.05;4.45;;;;;;;6.00;79.06;100862.78;10351925;28;20052;-79
2021/01/01 13:52:15;;;;;;;8.48;4.00;;;;;;;5.89;79.37;100862.34;10376510;28;20041;-78
2021/01/01 13:57:15;;;;;;;11.98;4.30;;;;;;;5.70;79.13;100844.00;10368864;28;20098;-80
2021/01/01 14:02:15;;;;;;;7.30;3.28;;;;;;;5.63;79.24;100827.66;10380931;28;20030;-80
2021/01/01 14:07:16;;;;;;;9.38;4.30;;;;;;;5.63;80.60;100827.66;10359465;28;20157;-79
2021/01/01 14:12:17;;;;;;;8.68;3.80;;;;;;;5.88;78.87;100872.31;10376972;28;20037;-79
2021/01/01 14:17:19;;;;;;;9.57;4.20;;;;;;;5.45;78.24;100817.03;10387089;28;20041;-79
2021/01/01 14:22:20;;;;;;;;;;;;;;;5.76;78.90;100880.25;10384854;28;20112;-79
2021/01/01 14:27:20;;;;;;;11.07;4.72;;;;;;;5.63;80.18;100886.66;10371957;28;19921;-80
2021/01/01 14:32:21;;;;;;;9.10;4.80;;;;;;;5.12;80.72;100840.22;10347128;28;20072;-79
2021/01/01 14:37:21;;;;;;;9.63;4.00;;;;;;;5.43;81.43;100888.97;10370186;28;20030;-79
2021/01/01 14:42:22;;;;;;;11.20;5.70;;;;;;;5.10;82.02;100848.56;10364488;28;20030;-79
2021/01/01 14:47:22;;;;;;;9.70;4.30;;;;;;;5.31;82.35;100883.47;10368544;28;20056;-81
2021/01/01 14:52:23;;;;;;;11.27;5.32;;;;;;;5.14;83.13;100859.44;10335770;28;20046;-82
2021/01/01 14:57:23;;;;;;;11.75;5.78;;;;;;;5.23;83.25;100901.19;10356639;28;20034;-84
2021/01/01 15:02:24;;;;;;;12.50;6.18;;;;;;;5.28;83.47;100918.97;10369268;28;20042;-83
2021/01/01 15:07:24;;;;;;;9.00;5.07;;;;;;;5.25;83.34;100922.31;10366924;28;20045;-79
2021/01/01 15:12:25;;;;;;;9.40;4.60;;;;;;;5.17;83.38;100928.47;10386550;28;20045;-81
2021/01/01 15:17:25;;;;;;;9.80;4.38;;;;;;;5.14;83.93;100923.75;10352922;28;20060;-82
2021/01/01 15:22:26;;;;;;;8.70;4.35;;;;;;;5.08;84.05;100921.25;10353600;28;20125;-83
2021/01/01 15:27:27;;;;;;;9.15;4.88;;;;;;;4.71;84.21;100868.41;10329950;28;20087;-83
2021/01/01 15:32:30;;;;;;;10.95;4.45;;;;;;;5.01;84.56;100915.59;10335841;28;20106;-83
2021/01/01 15:37:31;;;;;;;8.27;4.68;;;;;;;4.50;84.62;100846.88;10337600;28;20025;-80
2021/01/01 15:42:32;;;;;;;11.88;5.10;;;;;;;5.03;85.30;100940.19;10360320;28;20033;-81
2021/01/01 15:47:34;;;;;;;9.65;5.20;;;;;;;4.11;85.01;100819.97;10336929;28;20079;-79
2021/01/01 15:52:34;;;;;;;10.77;5.85;;;;;;;4.85;85.77;100927.91;10350391;28;20046;-81
2021/01/01 15:57:35;;;;;;;10.68;5.30;;;;;;;4.89;85.72;100934.19;10348699;28;20042;-84
2021/01/01 16:02:35;;;;;;;12.35;6.03;;;;;;;4.97;86.04;100952.16;10334005;28;20048;-80
2021/01/01 16:07:36;;;;;;;11.85;6.30;;;;;;;4.83;85.99;100935.47;10335274;28;20669;-80
2021/01/01 16:12:36;;;;;;;12.40;5.95;;;;;;;4.81;86.03;100933.13;10351283;28;20125;-80
2021/01/01 16:17:37;;;;;;;16.35;6.90;;;;;;;4.60;85.83;100916.91;10326010;28;20045;-80
2021/01/01 16:22:37;;;;;;;14.02;7.00;;;;;;;4.58;85.73;100900.38;10336428;28;20155;-83
2021/01/01 16:27:38;;;;;;;13.07;6.95;;;;;;;4.79;86.29;100945.25;10327195;28;20148;-79
2021/01/01 16:32:39;;;;;;;14.07;7.78;;;;;;;4.37;87.24;100886.06;10322826;28;20099;-80
2021/01/01 16:37:40;;;;;;;12.50;7.05;;;;;;;4.51;87.16;100913.44;10349173;28;20033;-85
2021/01/01 16:42:41;;;;;;;17.38;7.03;;;;;;;4.71;87.89;100951.41;10335083;28;20690;-84
2021/01/01 16:47:42;;;;;;;13.52;7.55;;;;;;;4.90;87.84;100967.94;10348636;28;20033;-81
2021/01/01 16:52:47;;;;;;;15.00;8.05;;;;;;;4.87;88.70;100976.59;10346749;28;20471;-86
2021/01/01 16:57:48;;;;;;;15.32;7.32;;;;;;;4.93;88.47;100978.00;10347502;28;20080;-84
2021/01/01 17:02:48;;;;;;;18.33;10.05;;;;;;;4.79;90.20;100993.47;10336871;28;20061;-80
2021/01/01 17:07:49;;;;;;;20.98;9.20;;;;;;;4.72;91.13;100977.06;10373373;28;20044;-85
2021/01/01 17:12:49;;;;;;;25.92;9.85;;;;;;;4.65;92.51;100989.03;10357342;28;20045;-77
2021/01/01 17:17:50;;;;;;;23.40;8.73;;;;;;;4.48;91.99;100966.84;10339030;28;20377;-81
2021/01/01 17:22:50;;;;;;;17.15;8.68;;;;;;;4.15;91.99;100917.22;10351006;28;20176;-77
2021/01/01 17:27:57;;;;;;;17.83;7.70;;;;;;;4.45;93.01;100968.25;10344797;28;20053;-83
2021/01/01 17:33:02;;;;;;;21.45;10.15;;;;;;;4.43;94.49;100991.88;10339556;28;20128;-81
2021/01/01 17:38:03;;;;;;;21.45;10.00;;;;;;;4.33;95.11;100984.16;10363118;28;20091;-80
2021/01/01 17:43:03;;;;;;;18.50;9.30;;;;;;;4.33;95.14;100992.19;10351136;28;20102;-79
2021/01/01 17:48:06;;;;;;;17.63;10.05;;;;;;;4.05;95.20;100952.31;10337320;28;20049;-79
2021/01/01 17:53:07;;;;;;;20.83;9.40;;;;;;;3.89;95.29;100924.44;10360760;28;20046;-80
2021/01/01 17:58:09;;;;;;;18.35;9.63;;;;;;;4.23;94.41;100991.38;10343923;28;20478;-80
2021/01/01 18:03:12;;;;;;;24.38;11.60;;;;;;;4.15;94.54;100992.13;10363149;28;20077;-81
2021/01/01 18:08:13;;;;;;;20.02;8.68;;;;;;;4.30;94.09;101016.88;10332729;28;20065;-81
2021/01/01 18:13:13;;;;;;;18.77;10.20;;;;;;;4.20;94.71;101009.94;10373338;28;20051;-80
2021/01/01 18:18:14;;;;;;;17.98;9.20;;;;;;;4.04;94.21;101001.53;10366255;28;20497;-81
2021/01/01 18:23:36;;;;;;;14.30;8.93;;;;;;;4.14;94.81;101033.38;10353244;28;20033;-80
2021/01/01 18:28:43;;;;;;;20.58;10.50;;;;;;;3.78;95.83;100983.53;10356090;28;20060;-80
2021/01/01 18:33:46;;;;;;;28.48;12.38;;;;;;;4.01;96.38;101018.22;10349739;28;20080;-80
2021/01/01 18:38:58;;;;;;;35.17;15.25;;;;;;;4.14;96.94;101037.91;10352594;28;20033;-79
2021/01/01 18:44:04;;;;;;;34.35;16.83;;;;;;;4.14;96.97;101044.09;10372472;28;20030;-81
2021/01/01 18:49:08;;;;;;;39.17;17.42;;;;;;;3.85;96.29;100993.00;10361290;28;20531;-81
2021/01/01 18:54:08;;;;;;;30.00;14.90;;;;;;;3.95;95.70;101024.81;10348275;28;20041;-82
2021/01/01 18:59:46;;;;;;;28.50;14.95;;;;;;;3.86;95.06;101026.66;10344411;28;20045;-82
2021/01/01 19:04:55;;;;;;;35.55;15.30;;;;;;;4.11;95.01;101055.38;10370985;28;20053;-82
2021/01/01 19:09:58;;;;;;;29.73;15.55;;;;;;;3.89;96.06;101034.09;10378821;28;20469;-83
2021/01/01 19:14:59;;;;;;;30.63;15.57;;;;;;;3.96;95.63;101059.28;10367641;28;20049;-80
2021/01/01 19:20:09;;;;;;;29.92;16.70;;;;;;;4.03;95.04;101070.31;10333845;28;20061;-79
2021/01/01 19:25:22;;;;;;;31.92;16.83;;;;;;;3.98;95.19;101077.69;10325001;28;20053;-77
2021/01/01 19:30:23;;;;;;;32.73;16.80;;;;;;;3.79;95.18;101060.00;10347218;28;20041;-78
2021/01/01 19:35:34;;;;;;;34.87;17.27;;;;;;;3.79;96.27;101084.06;10336556;28;20348;-80
2021/01/01 19:41:00;;;;;;;29.73;16.83;;;;;;;3.62;96.58;101065.22;10357870;28;20349;-80
2021/01/01 19:46:10;;;;;;;33.83;17.95;;;;;;;3.72;96.65;101086.38;10330205;28;20409;-81
2021/01/01 19:51:13;;;;;;;33.75;18.40;;;;;;;3.72;96.86;101086.38;10350183;28;20042;-79
2021/01/01 19:56:13;;;;;;;33.88;19.38;;;;;;;3.69;96.86;101097.69;10334167;28;20053;-79
2021/01/01 20:01:33;;;;;;;32.83;17.05;;;;;;;3.59;96.60;101087.25;10349806;28;20096;-81
2021/01/01 20:06:53;;;;;;;34.22;18.77;;;;;;;3.66;96.54;101111.66;10345079;28;20213;-76
2021/01/01 20:12:22;;;;;;;32.38;18.15;;;;;;;3.60;96.50;101094.97;10361212;28;20048;-77
2021/01/01 20:17:23;;;;;;;35.95;17.63;;;;;;;3.31;96.29;101060.66;10363400;28;20045;-76
2021/01/01 20:22:24;;;;;;;30.58;17.42;;;;;;;3.63;95.90;101098.91;10345657;28;20125;-77
2021/01/01 20:27:27;;;;;;;32.00;17.55;;;;;;;3.63;95.48;101119.50;10330776;28;20522;-76
2021/01/01 20:32:30;;;;;;;27.55;16.65;;;;;;;3.55;95.91;101113.00;10352210;28;20034;-77
2021/01/01 20:37:30;;;;;;;28.02;17.02;;;;;;;3.65;95.29;101128.81;10355306;28;20037;-76
2021/01/01 20:42:46;;;;;;;33.78;16.98;;;;;;;3.34;93.97;101076.09;10363389;28;20048;-77
2021/01/01 20:58:20;;;;;;;30.42;16.13;;;;;;;3.34;94.05;101097.47;10373974;28;20559;-77
2021/01/01 21:03:24;;;;;;;24.85;14.73;;;;;;;3.48;93.68;101117.97;10333409;28;20029;-79
2021/01/01 21:09:02;;;;;;;31.67;17.08;;;;;;;3.69;93.79;101145.00;10333433;28;22266;-79
2021/01/01 21:14:21;;;;;;;28.42;15.60;;;;;;;3.67;93.32;101142.66;10334172;28;20152;-80
2021/01/01 21:19:59;;;;;;;28.90;15.38;;;;;;;3.67;92.35;101137.31;10375362;28;20024;-80
2021/01/01 21:25:23;;;;;;;26.73;15.93;;;;;;;3.35;92.80;101104.38;10365845;28;20140;-77
2021/01/01 21:30:51;;;;;;;27.05;14.90;;;;;;;2.86;94.08;101023.25;10366215;28;20309;-77
2021/01/01 21:36:22;;;;;;;31.23;17.83;;;;;;;3.52;95.18;101135.78;10364477;28;20058;-78
2021/01/01 21:41:41;;;;;;;28.92;17.73;;;;;;;3.57;96.04;101158.94;10367952;28;20045;-75
2021/01/01 21:47:19;;;;;;;34.92;20.25;;;;;;;3.47;97.29;101153.81;10366677;28;20037;-77
2021/01/01 21:52:23;;;;;;;32.88;19.98;;;;;;;3.41;97.44;101165.72;10352058;28;20477;-79
2021/01/01 21:57:24;;;;;;;32.75;19.42;;;;;;;3.26;98.26;101148.94;10365648;28;20069;-77
2021/01/01 22:02:30;;;;;;;38.60;19.48;;;;;;;3.07;97.48;101129.63;10345108;28;20038;-77
2021/01/01 22:07:30;;;;;;;37.58;20.25;;;;;;;3.26;97.61;101164.97;10357882;28;20042;-78
2021/01/01 22:12:31;;;;;;;37.20;19.42;;;;;;;3.23;98.29;101154.13;10338260;28;20819;-77
2021/01/01 22:17:31;;;;;;;34.45;20.02;;;;;;;3.17;97.42;101156.09;10369645;28;20045;-76
2021/01/01 22:22:32;;;;;;;36.97;21.33;;;;;;;2.89;97.88;101113.44;10366890;28;20084;-79
2021/01/01 22:27:32;;;;;;;33.40;19.92;;;;;;;3.28;97.84;101167.34;10311702;28;20050;-78
2021/01/01 22:32:33;;;;;;;33.45;20.02;;;;;;;3.07;97.66;101143.75;10335275;28;20890;-76
2021/01/01 22:37:33;;;;;;;33.42;19.42;;;;;;;3.21;98.41;101165.09;10323916;28;20034;-77
2021/01/01 22:42:34;;;;;;;33.08;18.90;;;;;;;2.75;98.02;101080.63;10322040;28;20658;-77
2021/01/01 22:47:34;;;;;;;31.40;19.13;;;;;;;2.70;97.37;101088.75;10328836;28;20203;-77
2021/01/01 22:52:35;;;;;;;31.70;18.13;;;;;;;3.14;97.03;101151.34;10324600;28;20688;-76
2021/01/01 22:57:41;;;;;;;32.10;17.90;;;;;;;3.21;96.95;101173.09;10321830;28;20034;-78
2021/01/01 23:02:45;;;;;;;35.20;18.48;;;;;;;3.27;97.03;101169.25;10321183;28;20041;-77
2021/01/01 23:07:46;;;;;;;31.67;18.65;;;;;;;3.05;97.04;101137.13;10336043;28;20144;-77
2021/01/01 23:12:47;;;;;;;32.40;18.48;;;;;;;2.80;96.70;101099.22;10325467;28;20022;-75
2021/01/01 23:17:50;;;;;;;36.70;18.80;;;;;;;3.20;97.42;101171.53;10318721;28;20037;-78
2021/01/01 23:22:51;;;;;;;;;;;;;;;3.20;96.48;101160.84;10318651;28;20187;-78
2021/01/01 23:27:58;;;;;;;29.58;17.80;;;;;;;3.16;96.50;101175.91;10332959;28;20052;-79
2021/01/01 23:33:15;;;;;;;35.08;18.58;;;;;;;3.22;97.55;101174.66;10328791;28;20046;-78
2021/01/01 23:38:32;;;;;;;35.38;20.30;;;;;;;3.23;97.47;101186.97;10327639;28;20046;-78
2021/01/01 23:44:07;;;;;;;38.70;22.00;;;;;;;3.23;98.24;101186.97;10328171;28;20042;-78
2021/01/01 23:49:08;;;;;;;38.90;21.20;;;;;;;3.07;97.92;101173.13;10322796;28;20581;-78
2021/01/01 23:54:14;;;;;;;44.05;22.25;;;;;;;3.05;98.41;101158.50;10324539;28;20483;-78
2021/01/01 23:59:15;;;;;;;36.55;22.42;;;;;;;3.18;98.75;101190.53;10323758;28;20085;-78
